MTT weather

Minatitlán/Coatzacoalcos National Airport
Minatitlán, Veracruz, Mexico

Public forecast

Using degrees Celsius for public forecast. Weather courtesy of forecast.io.

Current aviation weather report (METAR) for Minatitlán/Coatzacoalcos National Airport

Report is more than 6 hours old.

Retrieved 2019/12/07 23:52 UTC (8 hours ago):

MMMT 072352Z 36008KT 10SM SCT200 26/21 A3007 RMK SLP272 55000 934 8/001

Aviation forecast (TAF) for Minatitlán/Coatzacoalcos National Airport

Retrieved 2019/12/08 06:19 UTC (1 hour ago):

TAF MMMT 080512Z 0806/0906 02006KT P6SM SCT200 TEMPO 0811/0815 3SM BR SCT020 FM081800 12010KT P6SM SCT025 SCT200 BECMG 0903/0905 12006KT